createdAt,value
2022-11-27T00:03:48.250Z,35.00
2022-11-27T00:06:21.480Z,30.50
2022-11-27T00:08:49.078Z,32.75
2022-11-27T00:11:21.394Z,32.40
2022-11-27T00:13:49.783Z,30.00
2022-11-27T00:16:17.972Z,42.08
2022-11-27T00:18:45.373Z,39.35
2022-11-27T00:21:19.052Z,37.72
2022-11-27T00:23:45.753Z,37.90
2022-11-27T00:26:15.090Z,33.53
2022-11-27T00:28:42.087Z,43.00
2022-11-27T00:31:29.140Z,39.63
2022-11-27T00:34:00.981Z,32.47
2022-11-27T00:36:29.142Z,34.65
2022-11-27T00:38:56.088Z,35.10
2022-11-27T00:41:25.241Z,35.50
2022-11-27T00:43:52.981Z,40.10
2022-11-27T00:46:27.896Z,40.75
2022-11-27T00:48:56.216Z,41.78
2022-11-27T00:51:24.352Z,38.92
2022-11-27T00:53:51.650Z,39.30
2022-11-27T00:56:25.275Z,44.88
2022-11-27T00:58:52.942Z,46.75
2022-11-27T01:01:27.261Z,37.83
2022-11-27T01:03:55.973Z,45.05
2022-11-27T01:06:22.904Z,45.17
2022-11-27T01:08:50.005Z,45.25
2022-11-27T01:11:19.458Z,50.55
2022-11-27T01:13:46.692Z,41.30
2022-11-27T01:16:20.271Z,49.03
2022-11-27T01:18:48.751Z,50.78
2022-11-27T01:21:18.440Z,40.30
2022-11-27T01:23:45.588Z,39.53
2022-11-27T01:26:12.913Z,41.80
2022-11-27T01:28:40.612Z,43.40
2022-11-27T01:31:10.405Z,39.85
2022-11-27T01:33:37.166Z,45.70
2022-11-27T01:36:06.054Z,52.47
2022-11-27T01:38:33.254Z,47.85
2022-11-27T01:41:07.340Z,50.85
2022-11-27T01:43:42.061Z,49.00
2022-11-27T01:46:30.003Z,47.50
2022-11-27T01:49:03.794Z,54.83
2022-11-27T01:51:31.468Z,45.42
2022-11-27T01:53:58.710Z,50.67
2022-11-27T01:56:27.117Z,49.80
2022-11-27T01:58:54.962Z,45.13
2022-11-27T02:01:24.353Z,56.85
2022-11-27T02:03:51.131Z,54.15
2022-11-27T02:06:17.775Z,56.13
2022-11-27T02:08:44.572Z,60.78
2022-11-27T02:11:18.120Z,60.22
2022-11-27T02:13:58.010Z,53.38
2022-11-27T02:17:09.160Z,67.57
2022-11-27T02:20:01.964Z,59.08
2022-11-27T02:22:56.100Z,72.00
2022-11-27T02:25:58.679Z,69.50
2022-11-27T02:29:03.384Z,68.78
2022-11-27T02:32:02.129Z,81.13
2022-11-27T02:34:43.894Z,82.28
2022-11-27T02:37:31.218Z,70.10
2022-11-27T02:40:27.165Z,83.40
2022-11-27T02:43:01.414Z,80.65
2022-11-27T02:45:41.865Z,89.70
2022-11-27T02:48:10.175Z,79.68
2022-11-27T02:50:39.360Z,86.38
2022-11-27T02:53:13.764Z,85.03
2022-11-27T02:55:42.350Z,82.22
2022-11-27T02:58:16.695Z,83.50
2022-11-27T03:00:46.379Z,89.28
2022-11-27T03:03:17.360Z,84.00
2022-11-27T03:05:47.513Z,86.80
2022-11-27T03:08:25.761Z,78.47
2022-11-27T03:13:25.907Z,68.40
2022-11-27T03:16:10.249Z,70.22
2022-11-27T03:21:34.934Z,65.28
2022-11-27T03:24:01.818Z,74.60
2022-11-27T03:26:28.548Z,71.85
2022-11-27T03:28:56.983Z,71.38
2022-11-27T03:31:24.141Z,70.35
2022-11-27T03:33:51.215Z,79.15
2022-11-27T03:36:20.262Z,69.57
2022-11-27T03:38:48.855Z,71.35
2022-11-27T03:41:26.923Z,74.03
2022-11-27T03:44:12.214Z,71.03
2022-11-27T03:46:39.217Z,76.15
2022-11-27T03:49:53.470Z,68.60
2022-11-27T03:52:26.385Z,65.53
2022-11-27T03:55:17.767Z,63.45
2022-11-27T03:57:44.397Z,63.63
2022-11-27T04:00:12.081Z,64.15
2022-11-27T04:02:47.772Z,72.43
2022-11-27T04:05:15.667Z,65.13
2022-11-27T04:07:42.686Z,64.78
2022-11-27T04:10:10.860Z,78.13
2022-11-27T04:12:37.869Z,65.55
2022-11-27T04:15:05.901Z,68.95
2022-11-27T04:17:32.725Z,70.07
2022-11-27T04:19:59.594Z,59.72
2022-11-27T04:22:26.265Z,71.40
2022-11-27T04:24:53.030Z,69.88
2022-11-27T04:27:19.690Z,71.97
2022-11-27T04:29:46.401Z,65.47
2022-11-27T04:32:13.057Z,72.82
2022-11-27T04:34:39.998Z,71.68
2022-11-27T04:37:06.818Z,61.50
2022-11-27T04:39:33.701Z,60.55
2022-11-27T04:42:00.378Z,79.78
2022-11-27T04:44:27.153Z,64.30
2022-11-27T04:46:54.054Z,60.20
2022-11-27T04:49:20.824Z,72.80
2022-11-27T04:51:47.680Z,60.30
2022-11-27T04:54:14.346Z,59.53
2022-11-27T04:56:40.982Z,59.35
2022-11-27T04:59:07.930Z,55.45
2022-11-27T05:01:34.746Z,56.67
2022-11-27T05:04:01.450Z,56.05
2022-11-27T05:06:28.142Z,55.42
2022-11-27T05:09:01.856Z,58.67
2022-11-27T05:11:30.496Z,58.63
2022-11-27T05:14:16.871Z,55.95
2022-11-27T05:16:55.110Z,56.53
2022-11-27T05:21:50.678Z,61.05
2022-11-27T05:24:19.250Z,51.10
2022-11-27T05:26:46.550Z,60.10
2022-11-27T05:29:14.471Z,57.08
2022-11-27T05:31:42.156Z,59.40
2022-11-27T05:34:09.120Z,59.40
2022-11-27T05:36:36.542Z,59.83
2022-11-27T05:39:06.317Z,64.53
2022-11-27T05:41:34.241Z,55.78
2022-11-27T05:44:00.940Z,58.38
2022-11-27T05:46:27.831Z,55.78
2022-11-27T05:48:54.569Z,55.67
2022-11-27T05:51:21.355Z,54.53
2022-11-27T05:53:48.224Z,63.63
2022-11-27T05:56:17.426Z,58.78
2022-11-27T05:58:46.034Z,54.13
2022-11-27T06:01:14.149Z,62.78
2022-11-27T06:03:41.006Z,62.15
2022-11-27T06:06:09.409Z,58.58
2022-11-27T06:08:40.428Z,65.00
2022-11-27T06:11:12.749Z,55.53
2022-11-27T06:13:40.298Z,59.83
2022-11-27T06:16:22.230Z,56.78
2022-11-27T06:18:51.182Z,61.85
2022-11-27T06:21:19.156Z,53.72
2022-11-27T06:23:45.986Z,62.17
2022-11-27T06:26:16.191Z,60.83
2022-11-27T06:28:43.322Z,56.85
2022-11-27T06:31:17.447Z,60.22
2022-11-27T06:33:46.111Z,56.95
2022-11-27T06:36:12.867Z,58.63
2022-11-27T06:38:39.784Z,51.75
2022-11-27T06:41:15.640Z,57.97
2022-11-27T06:43:42.786Z,53.75
2022-11-27T06:46:13.970Z,55.90
2022-11-27T06:48:41.177Z,50.30
2022-11-27T06:51:11.373Z,52.75
2022-11-27T06:53:38.933Z,47.00
2022-11-27T06:56:13.345Z,48.92
2022-11-27T06:58:40.751Z,56.25
2022-11-27T07:01:10.818Z,47.28
2022-11-27T07:03:37.726Z,47.92
2022-11-27T07:06:06.942Z,51.35
2022-11-27T07:08:34.815Z,49.25
2022-11-27T07:11:03.535Z,54.55
2022-11-27T07:13:31.316Z,48.65
2022-11-27T07:16:03.215Z,42.60
2022-11-27T07:20:56.996Z,41.13
2022-11-27T07:23:23.639Z,45.35
2022-11-27T07:25:50.414Z,46.60
2022-11-27T07:28:19.116Z,43.55
2022-11-27T07:30:53.596Z,45.92
2022-11-27T07:33:20.322Z,48.83
2022-11-27T07:35:47.003Z,52.78
2022-11-27T07:38:13.825Z,46.40
2022-11-27T07:40:40.549Z,42.00
2022-11-27T07:43:07.538Z,47.00
2022-11-27T07:45:34.302Z,49.78
2022-11-27T07:48:00.999Z,48.30
2022-11-27T07:50:27.762Z,53.30
2022-11-27T07:52:54.445Z,56.35
2022-11-27T07:55:21.202Z,47.17
2022-11-27T07:57:47.992Z,45.17
2022-11-27T08:00:15.155Z,45.38
2022-11-27T08:02:41.905Z,38.15
2022-11-27T08:05:12.703Z,39.67
2022-11-27T08:07:40.266Z,39.03
2022-11-27T08:10:07.938Z,43.90
2022-11-27T08:12:34.586Z,39.28
2022-11-27T08:15:01.621Z,40.75
2022-11-27T08:17:28.280Z,36.97
2022-11-27T08:19:55.169Z,35.15
2022-11-27T08:22:22.380Z,36.95
2022-11-27T08:24:52.005Z,34.40
2022-11-27T08:27:19.340Z,33.72
2022-11-27T08:29:46.891Z,27.00
2022-11-27T08:32:14.448Z,29.50
2022-11-27T08:34:41.299Z,30.67
2022-11-27T08:37:08.171Z,31.33
2022-11-27T08:39:35.719Z,32.30
2022-11-27T08:42:02.569Z,30.90
2022-11-27T08:44:29.274Z,26.25
2022-11-27T08:46:56.107Z,26.02
2022-11-27T08:49:22.987Z,27.80
2022-11-27T08:51:49.645Z,29.27
2022-11-27T08:54:16.559Z,28.35
2022-11-27T08:56:43.286Z,26.17
2022-11-27T08:59:09.941Z,23.83
2022-11-27T09:01:36.747Z,26.98
2022-11-27T09:04:03.740Z,24.58
2022-11-27T09:06:33.746Z,22.45
2022-11-27T09:09:02.986Z,29.25
2022-11-27T09:11:31.962Z,25.80
2022-11-27T09:14:00.497Z,25.27
2022-11-27T09:16:30.165Z,22.13
2022-11-27T09:18:58.917Z,24.20
2022-11-27T09:21:27.278Z,21.50
2022-11-27T09:23:57.459Z,17.52
2022-11-27T09:26:25.786Z,18.85
2022-11-27T09:28:54.084Z,21.70
2022-11-27T09:31:22.786Z,19.42
2022-11-27T09:33:50.101Z,19.83
2022-11-27T09:36:20.019Z,20.10
2022-11-27T09:38:47.043Z,22.02
2022-11-27T09:41:43.848Z,23.85
2022-11-27T09:46:51.330Z,23.48
2022-11-27T09:49:24.594Z,18.38
2022-11-27T09:52:04.046Z,18.45
2022-11-27T09:54:37.228Z,15.02
2022-11-27T09:57:05.739Z,19.63
2022-11-27T09:59:53.513Z,17.88
2022-11-27T10:02:32.088Z,18.88
2022-11-27T10:05:16.953Z,17.30
2022-11-27T10:08:03.242Z,19.85
2022-11-27T10:11:46.778Z,20.65
2022-11-27T10:14:22.110Z,22.35
2022-11-27T10:16:59.799Z,20.27
2022-11-27T10:19:42.811Z,18.60
2022-11-27T10:22:26.152Z,18.42
2022-11-27T10:25:18.092Z,16.70
2022-11-27T10:28:23.824Z,21.80
2022-11-27T10:31:11.905Z,17.85
2022-11-27T10:33:45.302Z,15.98
2022-11-27T10:36:22.241Z,19.08
2022-11-27T10:38:49.171Z,18.02
2022-11-27T10:44:22.600Z,18.77
2022-11-27T10:46:53.830Z,17.05
2022-11-27T10:49:20.677Z,17.85
2022-11-27T10:51:47.377Z,15.68
2022-11-27T10:54:29.220Z,18.20
2022-11-27T10:57:33.522Z,20.52
2022-11-27T11:00:06.559Z,19.92
2022-11-27T11:02:37.217Z,15.65
2022-11-27T11:08:18.782Z,18.40
2022-11-27T11:10:54.631Z,19.15
2022-11-27T11:13:27.904Z,16.08
2022-11-27T11:15:56.262Z,14.95
2022-11-27T11:18:35.102Z,17.75
2022-11-27T11:21:05.455Z,20.42
2022-11-27T11:23:34.154Z,19.15
2022-11-27T11:26:05.627Z,15.40
2022-11-27T11:28:39.719Z,15.88
2022-11-27T11:31:09.706Z,17.73
2022-11-27T11:33:48.644Z,19.80
2022-11-27T11:36:15.614Z,14.07
2022-11-27T11:38:46.233Z,15.88
2022-11-27T11:41:13.708Z,15.73
2022-11-27T11:43:41.426Z,14.75
2022-11-27T11:46:18.244Z,15.43
2022-11-27T11:48:55.727Z,13.57
2022-11-27T11:51:34.874Z,14.20
2022-11-27T11:54:17.933Z,14.10
2022-11-27T11:56:52.301Z,15.45
2022-11-27T11:59:31.609Z,16.52
2022-11-27T12:01:58.856Z,17.20
2022-11-27T12:05:06.403Z,15.50
2022-11-27T12:08:04.041Z,15.48
2022-11-27T12:11:03.698Z,15.57
2022-11-27T12:13:45.241Z,14.18
2022-11-27T12:16:35.131Z,14.88
2022-11-27T12:19:17.074Z,17.25
2022-11-27T12:22:07.870Z,17.02
2022-11-27T12:24:51.973Z,15.93
2022-11-27T12:27:51.792Z,14.35
2022-11-27T12:30:24.226Z,13.13
2022-11-27T12:33:33.565Z,14.07
2022-11-27T12:36:26.820Z,17.13
2022-11-27T12:39:15.451Z,13.93
2022-11-27T12:42:02.830Z,14.63
2022-11-27T12:45:01.795Z,15.55
2022-11-27T12:47:40.407Z,15.10
2022-11-27T12:50:23.928Z,13.95
2022-11-27T12:53:02.581Z,12.70
2022-11-27T12:55:33.069Z,11.65
2022-11-27T12:58:06.382Z,13.65
2022-11-27T13:00:38.102Z,12.10
2022-11-27T13:03:16.113Z,16.50
2022-11-27T13:06:06.463Z,13.50
2022-11-27T13:08:52.634Z,14.18
2022-11-27T13:11:23.897Z,13.98
2022-11-27T13:14:03.162Z,14.15
2022-11-27T13:16:50.138Z,13.48
2022-11-27T13:19:30.495Z,12.43
2022-11-27T13:21:58.701Z,13.73
2022-11-27T13:24:28.321Z,11.63
2022-11-27T13:27:06.004Z,15.98
2022-11-27T13:29:58.988Z,15.38
2022-11-27T13:32:38.050Z,13.00
2022-11-27T13:35:17.619Z,14.02
2022-11-27T13:37:45.331Z,12.60
2022-11-27T13:40:26.769Z,13.35
2022-11-27T13:42:56.236Z,15.45
2022-11-27T13:45:28.523Z,12.50
2022-11-27T13:47:58.034Z,12.93
2022-11-27T13:50:30.852Z,13.90
2022-11-27T13:53:05.069Z,13.43
2022-11-27T13:55:51.660Z,11.23
2022-11-27T13:58:41.382Z,11.68
2022-11-27T14:01:26.476Z,13.13
2022-11-27T14:03:53.472Z,13.95
2022-11-27T14:06:20.137Z,11.75
2022-11-27T14:09:01.526Z,14.93
2022-11-27T14:11:44.743Z,12.70
2022-11-27T14:14:26.598Z,13.57
2022-11-27T14:16:57.654Z,14.65
2022-11-27T14:19:33.805Z,13.35
2022-11-27T14:22:14.582Z,14.02
2022-11-27T14:24:47.193Z,11.50
2022-11-27T14:27:20.330Z,12.88
2022-11-27T14:29:50.688Z,13.02
2022-11-27T14:32:19.830Z,13.55
2022-11-27T14:34:50.734Z,10.65
2022-11-27T14:37:26.531Z,10.65
2022-11-27T14:39:53.833Z,11.60
2022-11-27T14:42:29.074Z,14.63
2022-11-27T14:45:10.804Z,13.50
2022-11-27T14:47:41.081Z,13.65
2022-11-27T14:50:14.129Z,14.10
2022-11-27T14:52:43.730Z,12.57
2022-11-27T14:55:16.389Z,15.13
2022-11-27T14:57:48.670Z,13.77
2022-11-27T15:00:27.270Z,11.25
2022-11-27T15:02:54.658Z,12.98
2022-11-27T15:05:29.078Z,12.48
2022-11-27T15:07:58.446Z,13.60
2022-11-27T15:10:31.715Z,10.05
2022-11-27T15:13:00.380Z,12.55
2022-11-27T15:15:29.873Z,9.40
2022-11-27T15:18:06.705Z,12.30
2022-11-27T15:20:42.393Z,8.82
2022-11-27T15:23:21.224Z,10.40
2022-11-27T15:25:52.786Z,10.43
2022-11-27T15:28:37.855Z,14.25
2022-11-27T15:31:23.131Z,11.80
2022-11-27T15:34:07.004Z,11.57
2022-11-27T15:36:50.349Z,12.23
2022-11-27T15:39:33.670Z,11.98
2022-11-27T15:42:02.522Z,11.27
2022-11-27T15:44:31.785Z,8.45
2022-11-27T15:47:01.408Z,14.13
2022-11-27T15:49:28.559Z,11.73
2022-11-27T15:51:56.752Z,12.95
2022-11-27T15:54:24.513Z,10.65
2022-11-27T15:56:51.510Z,13.80
2022-11-27T15:59:20.807Z,23.58
2022-11-27T16:01:49.433Z,11.00
2022-11-27T16:04:17.008Z,12.68
2022-11-27T16:06:44.072Z,11.52
2022-11-27T16:09:10.845Z,14.32
2022-11-27T16:11:37.665Z,12.80
2022-11-27T16:14:04.629Z,12.80
2022-11-27T16:16:31.592Z,9.98
2022-11-27T16:19:00.706Z,10.48
2022-11-27T16:21:29.862Z,10.60
2022-11-27T16:24:02.562Z,14.38
2022-11-27T16:26:30.429Z,10.38
2022-11-27T16:28:57.835Z,12.23
2022-11-27T16:31:25.736Z,11.60
2022-11-27T16:33:52.777Z,11.60
2022-11-27T16:36:22.669Z,10.50
2022-11-27T16:38:52.415Z,12.32
2022-11-27T16:41:19.704Z,8.98
2022-11-27T16:43:48.958Z,9.73
2022-11-27T16:46:18.451Z,12.75
2022-11-27T16:48:46.910Z,8.10
2022-11-27T16:51:20.339Z,11.25
2022-11-27T16:53:49.599Z,10.30
2022-11-27T16:56:18.962Z,8.70
2022-11-27T16:58:47.180Z,12.32
2022-11-27T17:01:20.596Z,11.43
2022-11-27T17:03:48.329Z,10.02
2022-11-27T17:06:23.123Z,7.45
2022-11-27T17:08:49.914Z,8.77
2022-11-27T17:11:20.432Z,9.82
2022-11-27T17:13:48.337Z,8.30
2022-11-27T17:16:16.091Z,7.97
2022-11-27T17:18:45.809Z,7.22
2022-11-27T17:21:18.241Z,8.63
2022-11-27T17:23:46.906Z,9.82
2022-11-27T17:26:16.790Z,10.00
2022-11-27T17:28:43.971Z,8.32
2022-11-27T17:31:17.969Z,7.28
2022-11-27T17:33:45.895Z,9.90
2022-11-27T17:36:13.519Z,7.43
2022-11-27T17:38:40.766Z,10.10
2022-11-27T17:41:10.649Z,6.95
2022-11-27T17:43:38.390Z,7.05
2022-11-27T17:46:10.843Z,9.10
2022-11-27T17:48:38.232Z,7.55
2022-11-27T17:51:06.154Z,9.52
2022-11-27T17:53:33.467Z,9.52
2022-11-27T17:56:05.248Z,7.72
2022-11-27T17:58:32.019Z,8.43
2022-11-27T18:00:58.980Z,7.30
2022-11-27T18:03:26.207Z,9.05
2022-11-27T18:05:52.962Z,8.20
2022-11-27T18:08:19.787Z,6.50
2022-11-27T18:10:46.741Z,8.15
2022-11-27T18:13:13.581Z,8.70
2022-11-27T18:15:42.649Z,8.52
2022-11-27T18:18:10.347Z,6.60
2022-11-27T18:20:37.289Z,7.22
2022-11-27T18:23:04.511Z,11.88
2022-11-27T18:25:31.448Z,7.85
2022-11-27T18:27:58.728Z,9.00
2022-11-27T18:30:25.592Z,7.30
2022-11-27T18:32:52.276Z,7.85
2022-11-27T18:35:19.026Z,7.43
2022-11-27T18:37:45.772Z,7.90
2022-11-27T18:40:12.873Z,7.65
2022-11-27T18:42:39.712Z,8.18
2022-11-27T18:45:20.222Z,9.70
2022-11-27T18:47:53.862Z,7.63
2022-11-27T18:50:24.366Z,9.70
2022-11-27T18:52:54.308Z,6.07
2022-11-27T18:55:21.049Z,10.38
2022-11-27T18:57:47.678Z,8.80
2022-11-27T19:00:14.973Z,9.13
2022-11-27T19:02:41.890Z,8.10
2022-11-27T19:05:09.774Z,11.25
2022-11-27T19:07:36.504Z,8.77
2022-11-27T19:10:03.337Z,8.35
2022-11-27T19:12:30.110Z,7.93
2022-11-27T19:14:56.782Z,9.07
2022-11-27T19:17:27.937Z,11.30
2022-11-27T19:19:57.705Z,9.27
2022-11-27T19:22:24.648Z,8.50
2022-11-27T19:24:51.363Z,9.63
2022-11-27T19:27:18.115Z,8.05
2022-11-27T19:29:44.828Z,8.15
2022-11-27T19:32:12.167Z,7.03
2022-11-27T19:34:39.564Z,8.27
2022-11-27T19:37:06.493Z,8.75
2022-11-27T19:39:33.367Z,11.15
2022-11-27T19:42:00.042Z,11.00
2022-11-27T19:44:26.764Z,7.80
2022-11-27T19:46:53.479Z,11.07
2022-11-27T19:49:21.353Z,10.90
2022-11-27T19:51:48.639Z,7.90
2022-11-27T19:54:16.888Z,9.48
2022-11-27T19:56:43.705Z,10.02
2022-11-27T19:59:12.226Z,11.18
2022-11-27T20:01:40.228Z,10.93
2022-11-27T20:04:10.162Z,10.95
2022-11-27T20:06:37.102Z,11.27
2022-11-27T20:09:06.817Z,11.30
2022-11-27T20:11:35.771Z,7.43
2022-11-27T20:14:04.277Z,8.70
2022-11-27T20:16:32.039Z,11.60
2022-11-27T20:18:59.183Z,10.68
2022-11-27T20:21:26.695Z,10.05
2022-11-27T20:23:54.340Z,11.00
2022-11-27T20:26:26.819Z,12.35
2022-11-27T20:28:54.339Z,12.02
2022-11-27T20:31:33.435Z,10.68
2022-11-27T20:34:02.662Z,12.45
2022-11-27T20:36:32.149Z,16.90
2022-11-27T20:39:00.721Z,11.13
2022-11-27T20:41:28.587Z,9.68
2022-11-27T20:44:01.552Z,10.32
2022-11-27T20:46:28.719Z,10.70
2022-11-27T20:48:56.718Z,9.75
2022-11-27T20:51:30.154Z,14.15
2022-11-27T20:53:59.385Z,11.90
2022-11-27T20:56:27.826Z,12.30
2022-11-27T20:58:55.184Z,10.00
2022-11-27T21:01:26.312Z,12.57
2022-11-27T21:03:54.307Z,14.55
2022-11-27T21:06:23.696Z,10.85
2022-11-27T21:08:50.501Z,9.98
2022-11-27T21:11:26.608Z,9.73
2022-11-27T21:13:59.064Z,11.77
2022-11-27T21:16:28.914Z,11.07
2022-11-27T21:19:01.344Z,9.60
2022-11-27T21:21:29.036Z,10.90
2022-11-27T21:23:56.191Z,8.82
2022-11-27T21:26:23.972Z,9.45
2022-11-27T21:28:51.358Z,11.60
2022-11-27T21:31:20.853Z,11.30
2022-11-27T21:33:53.377Z,13.63
2022-11-27T21:36:22.737Z,13.88
2022-11-27T21:38:49.813Z,11.80
2022-11-27T21:41:17.636Z,13.57
2022-11-27T21:43:47.754Z,9.25
2022-11-27T21:46:17.832Z,12.40
2022-11-27T21:48:45.837Z,9.35
2022-11-27T21:51:15.189Z,11.43
2022-11-27T21:53:43.454Z,14.48
2022-11-27T21:56:13.367Z,10.82
2022-11-27T21:58:40.292Z,8.73
2022-11-27T22:01:12.123Z,13.52
2022-11-27T22:06:12.680Z,13.30
2022-11-27T22:08:41.250Z,13.80
2022-11-27T22:11:10.422Z,10.63
2022-11-27T22:13:37.307Z,10.88
2022-11-27T22:16:12.925Z,9.48
2022-11-27T22:18:39.851Z,11.77
2022-11-27T22:21:08.172Z,11.93
2022-11-27T22:23:35.763Z,9.88
2022-11-27T22:26:04.055Z,12.18
2022-11-27T22:28:31.194Z,11.68
2022-11-27T22:30:58.232Z,9.93
2022-11-27T22:33:25.349Z,11.50
2022-11-27T22:35:52.062Z,13.90
2022-11-27T22:38:18.798Z,10.25
2022-11-27T22:40:45.762Z,10.50
2022-11-27T22:43:12.457Z,9.23
2022-11-27T22:45:39.804Z,16.08
2022-11-27T22:48:06.806Z,11.80
2022-11-27T22:50:33.973Z,11.15
2022-11-27T22:53:00.728Z,11.07
2022-11-27T22:55:28.149Z,11.40
2022-11-27T22:57:55.233Z,15.10
2022-11-27T23:00:22.841Z,12.38
2022-11-27T23:02:49.577Z,11.93
2022-11-27T23:05:16.363Z,12.02
2022-11-27T23:07:43.118Z,14.15
2022-11-27T23:10:10.466Z,9.07
2022-11-27T23:12:37.378Z,12.63
2022-11-27T23:15:04.862Z,9.00
2022-11-27T23:17:31.686Z,13.13
2022-11-27T23:19:58.474Z,15.20
2022-11-27T23:22:25.214Z,14.85
2022-11-27T23:24:53.493Z,11.82
2022-11-27T23:27:20.205Z,12.07
2022-11-27T23:29:47.101Z,13.75
2022-11-27T23:32:13.853Z,13.35
2022-11-27T23:34:40.667Z,13.85
2022-11-27T23:37:07.699Z,14.82
2022-11-27T23:39:34.430Z,11.65
2022-11-27T23:42:01.221Z,13.55
2022-11-27T23:44:28.124Z,20.08
2022-11-27T23:46:54.873Z,12.75
2022-11-27T23:49:21.583Z,16.33
2022-11-27T23:51:48.276Z,16.38
2022-11-27T23:54:15.349Z,13.02
2022-11-27T23:56:44.199Z,16.20
2022-11-27T23:59:10.925Z,13.32
